sensor_id;sensor_type;location;lat;lon;timestamp;pressure;altitude;pressure_sealevel;temperature;humidity
74613;BME280;63119;51.788;8.824;2024-03-02T00:02:00;98823.00;;;7.90;82.11
74613;BME280;63119;51.788;8.824;2024-03-02T00:04:26;98813.19;;;7.92;82.23
74613;BME280;63119;51.788;8.824;2024-03-02T00:06:52;98809.56;;;7.82;83.18
74613;BME280;63119;51.788;8.824;2024-03-02T00:09:19;98821.53;;;7.86;82.51
74613;BME280;63119;51.788;8.824;2024-03-02T00:11:45;98816.50;;;7.83;82.93
74613;BME280;63119;51.788;8.824;2024-03-02T00:14:10;98818.00;;;7.98;82.17
74613;BME280;63119;51.788;8.824;2024-03-02T00:16:35;98821.09;;;7.92;82.98
74613;BME280;63119;51.788;8.824;2024-03-02T00:19:03;98810.56;;;7.92;82.80
74613;BME280;63119;51.788;8.824;2024-03-02T00:21:30;98816.28;;;7.86;83.19
74613;BME280;63119;51.788;8.824;2024-03-02T00:23:56;98814.81;;;7.82;82.76
74613;BME280;63119;51.788;8.824;2024-03-02T00:26:21;98811.47;;;7.80;82.82
74613;BME280;63119;51.788;8.824;2024-03-02T00:28:46;98814.34;;;7.88;82.69
74613;BME280;63119;51.788;8.824;2024-03-02T00:31:13;98813.88;;;7.83;83.06
74613;BME280;63119;51.788;8.824;2024-03-02T00:33:46;98810.75;;;7.78;83.19
74613;BME280;63119;51.788;8.824;2024-03-02T00:36:12;98812.78;;;7.74;83.81
74613;BME280;63119;51.788;8.824;2024-03-02T00:38:46;98809.31;;;7.85;83.18
74613;BME280;63119;51.788;8.824;2024-03-02T00:41:17;98804.03;;;7.74;83.33
74613;BME280;63119;51.788;8.824;2024-03-02T00:43:47;98809.53;;;7.70;83.66
74613;BME280;63119;51.788;8.824;2024-03-02T00:46:16;98805.22;;;7.69;83.37
74613;BME280;63119;51.788;8.824;2024-03-02T00:49:35;98801.72;;;7.58;84.78
74613;BME280;63119;51.788;8.824;2024-03-02T00:51:41;98801.03;;;7.67;83.91
74613;BME280;63119;51.788;8.824;2024-03-02T00:54:08;98802.16;;;7.52;84.38
74613;BME280;63119;51.788;8.824;2024-03-02T00:56:34;98795.38;;;7.60;83.69
74613;BME280;63119;51.788;8.824;2024-03-02T00:59:00;98796.66;;;7.55;84.47
74613;BME280;63119;51.788;8.824;2024-03-02T01:01:25;98791.63;;;7.52;84.52
74613;BME280;63119;51.788;8.824;2024-03-02T01:03:50;98785.66;;;7.50;84.90
74613;BME280;63119;51.788;8.824;2024-03-02T01:06:16;98789.94;;;7.51;84.39
74613;BME280;63119;51.788;8.824;2024-03-02T01:08:41;98784.91;;;7.48;84.90
74613;BME280;63119;51.788;8.824;2024-03-02T01:11:07;98783.88;;;7.50;84.68
74613;BME280;63119;51.788;8.824;2024-03-02T01:13:32;98793.59;;;7.72;83.40
74613;BME280;63119;51.788;8.824;2024-03-02T01:15:58;98798.16;;;7.70;83.58
74613;BME280;63119;51.788;8.824;2024-03-02T01:18:23;98793.72;;;7.59;83.98
74613;BME280;63119;51.788;8.824;2024-03-02T01:20:49;98796.28;;;7.48;84.67
74613;BME280;63119;51.788;8.824;2024-03-02T01:23:16;98794.47;;;7.38;85.28
74613;BME280;63119;51.788;8.824;2024-03-02T01:25:42;98794.56;;;7.36;85.15
74613;BME280;63119;51.788;8.824;2024-03-02T01:28:07;98787.97;;;7.31;85.67
74613;BME280;63119;51.788;8.824;2024-03-02T01:30:33;98790.25;;;7.35;85.49
74613;BME280;63119;51.788;8.824;2024-03-02T01:32:58;98792.50;;;7.29;85.96
74613;BME280;63119;51.788;8.824;2024-03-02T01:35:25;98789.03;;;7.28;85.53
74613;BME280;63119;51.788;8.824;2024-03-02T01:37:51;98781.13;;;7.28;85.38
74613;BME280;63119;51.788;8.824;2024-03-02T01:40:17;98785.22;;;7.32;85.44
74613;BME280;63119;51.788;8.824;2024-03-02T01:42:42;98783.75;;;7.28;85.23
74613;BME280;63119;51.788;8.824;2024-03-02T01:45:08;98784.47;;;7.30;85.67
74613;BME280;63119;51.788;8.824;2024-03-02T01:47:34;98786.44;;;7.39;84.74
74613;BME280;63119;51.788;8.824;2024-03-02T01:49:59;98785.75;;;7.48;84.50
74613;BME280;63119;51.788;8.824;2024-03-02T01:52:25;98788.91;;;7.53;83.81
74613;BME280;63119;51.788;8.824;2024-03-02T01:54:50;98784.22;;;7.57;83.34
74613;BME280;63119;51.788;8.824;2024-03-02T01:57:16;98783.34;;;7.45;84.00
74613;BME280;63119;51.788;8.824;2024-03-02T01:59:41;98789.34;;;7.47;84.01
74613;BME280;63119;51.788;8.824;2024-03-02T02:02:07;98777.91;;;7.36;84.28
74613;BME280;63119;51.788;8.824;2024-03-02T02:04:32;98778.28;;;7.31;84.66
74613;BME280;63119;51.788;8.824;2024-03-02T02:06:58;98774.63;;;7.21;85.12
74613;BME280;63119;51.788;8.824;2024-03-02T02:09:23;98764.06;;;7.10;85.76
74613;BME280;63119;51.788;8.824;2024-03-02T02:11:50;98767.19;;;7.15;85.42
74613;BME280;63119;51.788;8.824;2024-03-02T02:14:15;98759.03;;;7.07;86.06
74613;BME280;63119;51.788;8.824;2024-03-02T02:16:41;98753.38;;;7.00;85.99
74613;BME280;63119;51.788;8.824;2024-03-02T02:19:06;98744.59;;;6.89;86.68
74613;BME280;63119;51.788;8.824;2024-03-02T02:21:31;98743.94;;;6.98;86.26
74613;BME280;63119;51.788;8.824;2024-03-02T02:23:56;98740.69;;;6.94;86.71
74613;BME280;63119;51.788;8.824;2024-03-02T02:26:22;98746.19;;;7.02;86.16
74613;BME280;63119;51.788;8.824;2024-03-02T02:28:47;98741.00;;;7.13;85.23
74613;BME280;63119;51.788;8.824;2024-03-02T02:31:13;98740.84;;;7.04;86.28
74613;BME280;63119;51.788;8.824;2024-03-02T02:33:39;98739.59;;;6.97;86.57
74613;BME280;63119;51.788;8.824;2024-03-02T02:36:05;98726.47;;;6.97;86.70
74613;BME280;63119;51.788;8.824;2024-03-02T02:38:32;98728.63;;;7.03;85.92
74613;BME280;63119;51.788;8.824;2024-03-02T02:41:01;98728.81;;;7.12;85.36
74613;BME280;63119;51.788;8.824;2024-03-02T02:43:26;98739.22;;;7.14;84.68
74613;BME280;63119;51.788;8.824;2024-03-02T02:45:51;98728.94;;;7.11;84.47
74613;BME280;63119;51.788;8.824;2024-03-02T02:48:16;98726.53;;;7.08;85.25
74613;BME280;63119;51.788;8.824;2024-03-02T02:50:42;98725.53;;;6.98;85.62
74613;BME280;63119;51.788;8.824;2024-03-02T02:53:07;98726.84;;;7.03;85.78
74613;BME280;63119;51.788;8.824;2024-03-02T02:55:34;98716.53;;;6.89;86.55
74613;BME280;63119;51.788;8.824;2024-03-02T02:57:59;98717.63;;;6.74;87.58
74613;BME280;63119;51.788;8.824;2024-03-02T03:00:25;98710.69;;;6.73;87.46
74613;BME280;63119;51.788;8.824;2024-03-02T03:02:50;98707.88;;;6.87;87.14
74613;BME280;63119;51.788;8.824;2024-03-02T03:05:15;98703.97;;;6.69;88.07
74613;BME280;63119;51.788;8.824;2024-03-02T03:07:41;98706.75;;;6.79;88.04
74613;BME280;63119;51.788;8.824;2024-03-02T03:10:07;98701.28;;;6.82;87.92
74613;BME280;63119;51.788;8.824;2024-03-02T03:12:34;98699.00;;;6.77;88.15
74613;BME280;63119;51.788;8.824;2024-03-02T03:14:59;98700.84;;;6.88;88.29
74613;BME280;63119;51.788;8.824;2024-03-02T03:17:25;98702.31;;;6.92;87.82
74613;BME280;63119;51.788;8.824;2024-03-02T03:19:50;98699.63;;;6.81;88.80
74613;BME280;63119;51.788;8.824;2024-03-02T03:22:16;98699.53;;;6.93;88.56
74613;BME280;63119;51.788;8.824;2024-03-02T03:24:41;98708.72;;;6.88;88.73
74613;BME280;63119;51.788;8.824;2024-03-02T03:27:06;98697.28;;;6.89;89.17
74613;BME280;63119;51.788;8.824;2024-03-02T03:29:31;98699.53;;;6.93;89.27
74613;BME280;63119;51.788;8.824;2024-03-02T03:31:57;98705.31;;;6.98;89.01
74613;BME280;63119;51.788;8.824;2024-03-02T03:34:22;98698.06;;;7.02;89.20
74613;BME280;63119;51.788;8.824;2024-03-02T03:36:47;98698.28;;;6.99;89.44
74613;BME280;63119;51.788;8.824;2024-03-02T03:39:12;98699.16;;;7.10;88.93
74613;BME280;63119;51.788;8.824;2024-03-02T03:41:38;98699.47;;;7.06;89.58
74613;BME280;63119;51.788;8.824;2024-03-02T03:44:03;98697.16;;;7.14;89.30
74613;BME280;63119;51.788;8.824;2024-03-02T03:46:29;98694.63;;;7.12;89.15
74613;BME280;63119;51.788;8.824;2024-03-02T03:48:54;98694.63;;;7.12;89.26
74613;BME280;63119;51.788;8.824;2024-03-02T03:51:20;98694.75;;;7.11;89.49
74613;BME280;63119;51.788;8.824;2024-03-02T03:53:46;98686.84;;;7.11;89.90
74613;BME280;63119;51.788;8.824;2024-03-02T03:56:11;98696.41;;;7.12;89.80
74613;BME280;63119;51.788;8.824;2024-03-02T03:58:37;98688.97;;;7.06;90.24
74613;BME280;63119;51.788;8.824;2024-03-02T04:01:02;98696.41;;;7.12;90.19
74613;BME280;63119;51.788;8.824;2024-03-02T04:03:27;98699.03;;;7.12;90.07
74613;BME280;63119;51.788;8.824;2024-03-02T04:05:52;98697.84;;;7.16;90.24
74613;BME280;63119;51.788;8.824;2024-03-02T04:08:18;98701.09;;;7.20;89.42
74613;BME280;63119;51.788;8.824;2024-03-02T04:10:43;98703.84;;;7.18;89.98
74613;BME280;63119;51.788;8.824;2024-03-02T04:13:08;98704.44;;;7.22;89.85
74613;BME280;63119;51.788;8.824;2024-03-02T04:15:33;98709.63;;;7.23;89.34
74613;BME280;63119;51.788;8.824;2024-03-02T04:17:59;98722.16;;;7.20;89.55
74613;BME280;63119;51.788;8.824;2024-03-02T04:20:24;98721.31;;;7.19;89.78
74613;BME280;63119;51.788;8.824;2024-03-02T04:22:50;98719.13;;;7.13;89.48
74613;BME280;63119;51.788;8.824;2024-03-02T04:25:15;98719.63;;;7.18;89.39
74613;BME280;63119;51.788;8.824;2024-03-02T04:27:41;98715.19;;;7.19;88.87
74613;BME280;63119;51.788;8.824;2024-03-02T04:30:06;98710.44;;;7.24;88.77
74613;BME280;63119;51.788;8.824;2024-03-02T04:32:32;98712.69;;;7.17;88.43
74613;BME280;63119;51.788;8.824;2024-03-02T04:34:57;98706.22;;;7.10;88.96
74613;BME280;63119;51.788;8.824;2024-03-02T04:37:22;98712.94;;;7.14;89.29
74613;BME280;63119;51.788;8.824;2024-03-02T04:39:48;98708.59;;;7.13;89.36
74613;BME280;63119;51.788;8.824;2024-03-02T04:42:13;98710.28;;;7.14;88.85
74613;BME280;63119;51.788;8.824;2024-03-02T04:44:38;98719.84;;;7.15;88.83
74613;BME280;63119;51.788;8.824;2024-03-02T04:47:04;98721.84;;;7.11;88.84
74613;BME280;63119;51.788;8.824;2024-03-02T04:49:30;98720.19;;;7.10;89.09
74613;BME280;63119;51.788;8.824;2024-03-02T04:51:55;98719.84;;;7.15;89.04
74613;BME280;63119;51.788;8.824;2024-03-02T04:54:21;98711.00;;;7.16;89.12
74613;BME280;63119;51.788;8.824;2024-03-02T04:56:47;98718.91;;;7.16;88.77
74613;BME280;63119;51.788;8.824;2024-03-02T04:59:16;98719.22;;;7.11;88.88
74613;BME280;63119;51.788;8.824;2024-03-02T05:01:42;98728.03;;;7.23;88.50
74613;BME280;63119;51.788;8.824;2024-03-02T05:04:07;98729.69;;;7.24;89.07
74613;BME280;63119;51.788;8.824;2024-03-02T05:06:33;98726.22;;;7.24;88.70
74613;BME280;63119;51.788;8.824;2024-03-02T05:08:58;98720.13;;;7.23;88.40
74613;BME280;63119;51.788;8.824;2024-03-02T05:11:23;98732.09;;;7.27;88.29
74613;BME280;63119;51.788;8.824;2024-03-02T05:14:06;98733.31;;;7.34;87.69
74613;BME280;63119;51.788;8.824;2024-03-02T05:16:35;98727.94;;;7.36;88.07
74613;BME280;63119;51.788;8.824;2024-03-02T05:19:00;98734.09;;;7.24;88.36
74613;BME280;63119;51.788;8.824;2024-03-02T05:21:26;98732.94;;;7.28;88.83
74613;BME280;63119;51.788;8.824;2024-03-02T05:23:51;98733.06;;;7.26;88.33
74613;BME280;63119;51.788;8.824;2024-03-02T05:26:16;98728.13;;;7.22;88.90
74613;BME280;63119;51.788;8.824;2024-03-02T05:28:42;98730.97;;;7.19;88.77
74613;BME280;63119;51.788;8.824;2024-03-02T05:31:10;98734.00;;;7.25;88.42
74613;BME280;63119;51.788;8.824;2024-03-02T05:33:38;98735.78;;;7.25;88.10
74613;BME280;63119;51.788;8.824;2024-03-02T05:36:03;98740.22;;;7.24;88.44
74613;BME280;63119;51.788;8.824;2024-03-02T05:38:29;98741.53;;;7.30;88.10
74613;BME280;63119;51.788;8.824;2024-03-02T05:40:54;98742.63;;;7.27;87.89
74613;BME280;63119;51.788;8.824;2024-03-02T05:43:20;98744.13;;;7.19;88.68
74613;BME280;63119;51.788;8.824;2024-03-02T05:45:45;98742.81;;;7.13;88.82
74613;BME280;63119;51.788;8.824;2024-03-02T05:48:10;98750.72;;;7.24;88.58
74613;BME280;63119;51.788;8.824;2024-03-02T05:50:36;98748.09;;;7.24;87.92
74613;BME280;63119;51.788;8.824;2024-03-02T05:53:01;98748.63;;;7.29;87.54
74613;BME280;63119;51.788;8.824;2024-03-02T05:55:26;98748.53;;;7.42;86.70
74613;BME280;63119;51.788;8.824;2024-03-02T05:57:51;98742.31;;;7.43;87.18
74613;BME280;63119;51.788;8.824;2024-03-02T06:00:32;98749.34;;;7.31;87.02
74613;BME280;63119;51.788;8.824;2024-03-02T06:02:57;98753.19;;;7.38;86.44
74613;BME280;63119;51.788;8.824;2024-03-02T06:05:23;98750.59;;;7.49;86.42
74613;BME280;63119;51.788;8.824;2024-03-02T06:07:48;98751.75;;;7.34;86.58
74613;BME280;63119;51.788;8.824;2024-03-02T06:10:13;98757.47;;;7.28;86.95
74613;BME280;63119;51.788;8.824;2024-03-02T06:12:39;98751.16;;;7.42;86.87
74613;BME280;63119;51.788;8.824;2024-03-02T06:15:05;98747.25;;;7.24;87.57
74613;BME280;63119;51.788;8.824;2024-03-02T06:17:30;98752.44;;;7.36;86.61
74613;BME280;63119;51.788;8.824;2024-03-02T06:19:55;98756.91;;;7.12;88.27
74613;BME280;63119;51.788;8.824;2024-03-02T06:22:21;98762.09;;;7.25;88.15
74613;BME280;63119;51.788;8.824;2024-03-02T06:24:48;98760.81;;;7.30;87.59
74613;BME280;63119;51.788;8.824;2024-03-02T06:27:13;98764.53;;;7.39;86.83
74613;BME280;63119;51.788;8.824;2024-03-02T06:29:38;98770.31;;;7.44;86.43
74613;BME280;63119;51.788;8.824;2024-03-02T06:32:03;98777.59;;;7.40;86.39
74613;BME280;63119;51.788;8.824;2024-03-02T06:34:29;98784.09;;;7.47;85.96
74613;BME280;63119;51.788;8.824;2024-03-02T06:36:54;98783.88;;;7.50;85.52
74613;BME280;63119;51.788;8.824;2024-03-02T06:39:19;98785.13;;;7.45;86.03
74613;BME280;63119;51.788;8.824;2024-03-02T06:41:44;98785.13;;;7.45;86.50
74613;BME280;63119;51.788;8.824;2024-03-02T06:44:12;98782.78;;;7.53;86.12
74613;BME280;63119;51.788;8.824;2024-03-02T06:46:37;98782.94;;;7.62;85.71
74613;BME280;63119;51.788;8.824;2024-03-02T06:49:02;98779.88;;;7.45;86.18
74613;BME280;63119;51.788;8.824;2024-03-02T06:51:29;98776.28;;;7.46;86.42
74613;BME280;63119;51.788;8.824;2024-03-02T06:53:54;98780.31;;;7.39;86.57
74613;BME280;63119;51.788;8.824;2024-03-02T06:56:20;98790.38;;;7.68;86.11
74613;BME280;63119;51.788;8.824;2024-03-02T06:58:45;98780.69;;;8.26;83.64
74613;BME280;63119;51.788;8.824;2024-03-02T07:01:11;98793.88;;;8.70;80.36
74613;BME280;63119;51.788;8.824;2024-03-02T07:03:36;98793.66;;;8.62;80.50
74613;BME280;63119;51.788;8.824;2024-03-02T07:06:01;98792.66;;;8.63;81.27
74613;BME280;63119;51.788;8.824;2024-03-02T07:08:26;98797.47;;;8.58;80.59
74613;BME280;63119;51.788;8.824;2024-03-02T07:10:52;98795.03;;;8.22;81.75
74613;BME280;63119;51.788;8.824;2024-03-02T07:13:17;98806.00;;;7.94;83.92
74613;BME280;63119;51.788;8.824;2024-03-02T07:15:42;98812.41;;;8.13;83.61
74613;BME280;63119;51.788;8.824;2024-03-02T07:18:10;98804.88;;;8.20;82.73
74613;BME280;63119;51.788;8.824;2024-03-02T07:20:35;98807.22;;;8.01;83.30
74613;BME280;63119;51.788;8.824;2024-03-02T07:23:01;98816.47;;;8.17;83.16
74613;BME280;63119;51.788;8.824;2024-03-02T07:25:26;98818.41;;;8.27;83.15
74613;BME280;63119;51.788;8.824;2024-03-02T07:27:51;98829.69;;;8.40;82.46
74613;BME280;63119;51.788;8.824;2024-03-02T07:30:16;98828.38;;;8.67;81.41
74613;BME280;63119;51.788;8.824;2024-03-02T07:32:42;98824.56;;;8.71;81.81
74613;BME280;63119;51.788;8.824;2024-03-02T07:35:11;98831.03;;;8.67;80.52
74613;BME280;63119;51.788;8.824;2024-03-02T07:37:36;98834.88;;;8.52;81.45
74613;BME280;63119;51.788;8.824;2024-03-02T07:40:01;98842.94;;;8.27;82.23
74613;BME280;63119;51.788;8.824;2024-03-02T07:42:27;98833.72;;;8.21;83.45
74613;BME280;63119;51.788;8.824;2024-03-02T07:44:54;98836.66;;;8.30;82.52
74613;BME280;63119;51.788;8.824;2024-03-02T07:47:19;98835.81;;;8.40;82.68
74613;BME280;63119;51.788;8.824;2024-03-02T07:49:44;98835.03;;;8.27;82.90
74613;BME280;63119;51.788;8.824;2024-03-02T07:52:11;98833.72;;;8.10;83.46
74613;BME280;63119;51.788;8.824;2024-03-02T07:54:36;98843.25;;;8.46;82.77
74613;BME280;63119;51.788;8.824;2024-03-02T07:57:01;98846.13;;;8.32;83.04
74613;BME280;63119;51.788;8.824;2024-03-02T07:59:27;98847.06;;;8.42;82.34
74613;BME280;63119;51.788;8.824;2024-03-02T08:01:52;98846.72;;;8.80;81.62
74613;BME280;63119;51.788;8.824;2024-03-02T08:04:17;98851.38;;;9.21;79.86
74613;BME280;63119;51.788;8.824;2024-03-02T08:06:42;98856.41;;;9.24;78.99
74613;BME280;63119;51.788;8.824;2024-03-02T08:09:08;98852.47;;;9.82;76.52
74613;BME280;63119;51.788;8.824;2024-03-02T08:11:36;98850.94;;;10.00;75.34
74613;BME280;63119;51.788;8.824;2024-03-02T08:14:02;98851.81;;;10.42;74.19
74613;BME280;63119;51.788;8.824;2024-03-02T08:16:27;98852.06;;;10.60;73.65
74613;BME280;63119;51.788;8.824;2024-03-02T08:18:53;98855.22;;;10.54;73.56
74613;BME280;63119;51.788;8.824;2024-03-02T08:21:18;98858.09;;;10.71;73.38
74613;BME280;63119;51.788;8.824;2024-03-02T08:23:44;98847.84;;;10.27;73.34
74613;BME280;63119;51.788;8.824;2024-03-02T08:26:09;98851.88;;;10.52;73.07
74613;BME280;63119;51.788;8.824;2024-03-02T08:28:35;98859.56;;;10.13;74.08
74613;BME280;63119;51.788;8.824;2024-03-02T08:31:05;98855.84;;;10.05;75.02
74613;BME280;63119;51.788;8.824;2024-03-02T08:33:31;98856.03;;;10.13;73.86
74613;BME280;63119;51.788;8.824;2024-03-02T08:35:56;98865.22;;;10.09;73.85
74613;BME280;63119;51.788;8.824;2024-03-02T08:38:22;98850.56;;;10.67;72.22
74613;BME280;63119;51.788;8.824;2024-03-02T08:40:47;98857.81;;;10.74;71.23
74613;BME280;63119;51.788;8.824;2024-03-02T08:43:13;98860.13;;;10.98;71.05
74613;BME280;63119;51.788;8.824;2024-03-02T08:45:39;98861.25;;;10.95;69.17
74613;BME280;63119;51.788;8.824;2024-03-02T08:48:07;98855.06;;;11.25;68.98
74613;BME280;63119;51.788;8.824;2024-03-02T08:50:34;98854.09;;;11.26;69.67
74613;BME280;63119;51.788;8.824;2024-03-02T08:52:59;98868.09;;;11.57;68.42
74613;BME280;63119;51.788;8.824;2024-03-02T08:55:24;98860.34;;;11.75;67.76
74613;BME280;63119;51.788;8.824;2024-03-02T08:57:49;98863.28;;;11.22;68.48
74613;BME280;63119;51.788;8.824;2024-03-02T09:00:16;98861.34;;;11.24;67.45
74613;BME280;63119;51.788;8.824;2024-03-02T09:02:43;98860.00;;;11.59;68.05
74613;BME280;63119;51.788;8.824;2024-03-02T09:05:09;98849.28;;;11.50;67.78
74613;BME280;63119;51.788;8.824;2024-03-02T09:07:34;98852.75;;;11.41;67.86
74613;BME280;63119;51.788;8.824;2024-03-02T09:10:00;98855.78;;;11.37;67.19
74613;BME280;63119;51.788;8.824;2024-03-02T09:12:25;98850.22;;;11.30;67.88
74613;BME280;63119;51.788;8.824;2024-03-02T09:14:50;98848.44;;;11.69;66.92
74613;BME280;63119;51.788;8.824;2024-03-02T09:17:15;98851.50;;;11.65;67.44
74613;BME280;63119;51.788;8.824;2024-03-02T09:19:41;98849.94;;;11.33;67.69
74613;BME280;63119;51.788;8.824;2024-03-02T09:22:06;98854.56;;;11.01;69.82
74613;BME280;63119;51.788;8.824;2024-03-02T09:24:32;98856.06;;;11.43;68.32
74613;BME280;63119;51.788;8.824;2024-03-02T09:26:58;98859.56;;;11.44;67.72
74613;BME280;63119;51.788;8.824;2024-03-02T09:29:24;98862.75;;;11.38;68.26
74613;BME280;63119;51.788;8.824;2024-03-02T09:31:49;98858.75;;;11.63;66.93
74613;BME280;63119;51.788;8.824;2024-03-02T09:34:16;98858.94;;;11.90;66.23
74613;BME280;63119;51.788;8.824;2024-03-02T09:36:41;98858.81;;;11.91;65.10
74613;BME280;63119;51.788;8.824;2024-03-02T09:39:09;98863.97;;;11.93;65.37
74613;BME280;63119;51.788;8.824;2024-03-02T09:41:36;98852.31;;;11.46;66.30
74613;BME280;63119;51.788;8.824;2024-03-02T09:44:02;98861.13;;;11.56;66.95
74613;BME280;63119;51.788;8.824;2024-03-02T09:46:28;98856.38;;;11.50;65.89
74613;BME280;63119;51.788;8.824;2024-03-02T09:48:53;98841.22;;;11.71;66.53
74613;BME280;63119;51.788;8.824;2024-03-02T09:51:19;98852.78;;;11.80;65.57
74613;BME280;63119;51.788;8.824;2024-03-02T09:53:45;98853.00;;;12.44;64.35
74613;BME280;63119;51.788;8.824;2024-03-02T09:56:10;98854.13;;;12.51;62.88
74613;BME280;63119;51.788;8.824;2024-03-02T09:58:36;98850.88;;;11.82;64.89
74613;BME280;63119;51.788;8.824;2024-03-02T10:01:01;98853.06;;;11.77;65.05
74613;BME280;63119;51.788;8.824;2024-03-02T10:03:28;98858.13;;;11.70;64.72
74613;BME280;63119;51.788;8.824;2024-03-02T10:05:54;98855.72;;;11.96;65.80
74613;BME280;63119;51.788;8.824;2024-03-02T10:08:19;98857.81;;;12.02;64.72
74613;BME280;63119;51.788;8.824;2024-03-02T10:10:44;98854.19;;;12.13;65.42
74613;BME280;63119;51.788;8.824;2024-03-02T10:13:12;98848.00;;;12.31;64.29
74613;BME280;63119;51.788;8.824;2024-03-02T10:15:38;98861.03;;;12.25;64.41
74613;BME280;63119;51.788;8.824;2024-03-02T10:18:08;98871.78;;;11.94;64.78
74613;BME280;63119;51.788;8.824;2024-03-02T10:20:34;98858.59;;;12.41;63.33
74613;BME280;63119;51.788;8.824;2024-03-02T10:23:16;98854.09;;;12.97;61.54
74613;BME280;63119;51.788;8.824;2024-03-02T10:25:43;98855.69;;;13.45;61.49
74613;BME280;63119;51.788;8.824;2024-03-02T10:28:08;98857.16;;;13.30;60.08
74613;BME280;63119;51.788;8.824;2024-03-02T10:30:34;98854.66;;;13.55;60.04
74613;BME280;63119;51.788;8.824;2024-03-02T10:33:03;98848.88;;;13.05;60.75
74613;BME280;63119;51.788;8.824;2024-03-02T10:35:28;98850.78;;;13.23;59.84
74613;BME280;63119;51.788;8.824;2024-03-02T10:37:58;98842.50;;;12.89;60.42
74613;BME280;63119;51.788;8.824;2024-03-02T10:40:23;98836.94;;;12.92;61.44
74613;BME280;63119;51.788;8.824;2024-03-02T10:42:52;98839.94;;;13.06;60.39
74613;BME280;63119;51.788;8.824;2024-03-02T10:45:19;98846.09;;;13.07;60.87
74613;BME280;63119;51.788;8.824;2024-03-02T10:47:46;98834.09;;;13.03;61.19
74613;BME280;63119;51.788;8.824;2024-03-02T10:50:12;98835.09;;;12.92;60.78
74613;BME280;63119;51.788;8.824;2024-03-02T10:52:37;98838.09;;;12.80;61.38
74613;BME280;63119;51.788;8.824;2024-03-02T10:55:04;98842.38;;;13.27;60.72
74613;BME280;63119;51.788;8.824;2024-03-02T10:57:51;98835.22;;;13.00;60.53
74613;BME280;63119;51.788;8.824;2024-03-02T11:00:18;98842.31;;;13.37;60.49
74613;BME280;63119;51.788;8.824;2024-03-02T11:02:50;98850.91;;;13.48;60.14
74613;BME280;63119;51.788;8.824;2024-03-02T11:05:22;98844.88;;;13.74;59.25
74613;BME280;63119;51.788;8.824;2024-03-02T11:07:50;98832.78;;;13.79;59.30
74613;BME280;63119;51.788;8.824;2024-03-02T11:10:17;98840.81;;;13.69;59.59
74613;BME280;63119;51.788;8.824;2024-03-02T11:12:53;98838.31;;;13.86;58.96
74613;BME280;63119;51.788;8.824;2024-03-02T11:15:24;98833.53;;;13.54;60.08
74613;BME280;63119;51.788;8.824;2024-03-02T11:17:50;98839.97;;;13.34;59.43
74613;BME280;63119;51.788;8.824;2024-03-02T11:20:16;98823.78;;;13.80;59.25
74613;BME280;63119;51.788;8.824;2024-03-02T11:22:42;98829.75;;;14.17;57.81
74613;BME280;63119;51.788;8.824;2024-03-02T11:25:23;98835.34;;;14.06;58.34
74613;BME280;63119;51.788;8.824;2024-03-02T11:33:10;98828.38;;;14.31;57.34
74613;BME280;63119;51.788;8.824;2024-03-02T11:38:01;98826.88;;;14.29;57.33
74613;BME280;63119;51.788;8.824;2024-03-02T11:40:28;98834.25;;;14.35;57.95
74613;BME280;63119;51.788;8.824;2024-03-02T11:42:54;98837.91;;;14.34;56.60
74613;BME280;63119;51.788;8.824;2024-03-02T11:45:24;98830.44;;;13.76;57.78
74613;BME280;63119;51.788;8.824;2024-03-02T11:47:56;98823.31;;;14.02;57.55
74613;BME280;63119;51.788;8.824;2024-03-02T11:50:40;98826.44;;;13.27;59.51
74613;BME280;63119;51.788;8.824;2024-03-02T11:53:08;98826.34;;;13.19;59.74
74613;BME280;63119;51.788;8.824;2024-03-02T11:55:35;98828.13;;;13.28;60.48
74613;BME280;63119;51.788;8.824;2024-03-02T11:58:05;98822.41;;;13.41;60.22
74613;BME280;63119;51.788;8.824;2024-03-02T12:00:31;98828.22;;;13.09;60.79
74613;BME280;63119;51.788;8.824;2024-03-02T12:03:04;98825.16;;;13.04;60.55
74613;BME280;63119;51.788;8.824;2024-03-02T12:05:31;98812.97;;;13.11;61.26
74613;BME280;63119;51.788;8.824;2024-03-02T12:07:58;98816.59;;;13.37;60.79
74613;BME280;63119;51.788;8.824;2024-03-02T12:10:24;98809.53;;;13.81;60.02
74613;BME280;63119;51.788;8.824;2024-03-02T12:13:04;98806.25;;;13.69;60.13
74613;BME280;63119;51.788;8.824;2024-03-02T12:15:33;98816.19;;;13.50;59.22
74613;BME280;63119;51.788;8.824;2024-03-02T12:18:00;98816.97;;;13.42;59.34
74613;BME280;63119;51.788;8.824;2024-03-02T12:20:27;98807.41;;;13.49;59.32
74613;BME280;63119;51.788;8.824;2024-03-02T12:22:54;98810.28;;;13.91;58.53
74613;BME280;63119;51.788;8.824;2024-03-02T12:25:21;98811.41;;;13.71;58.59
74613;BME280;63119;51.788;8.824;2024-03-02T12:27:49;98811.19;;;14.00;58.68
74613;BME280;63119;51.788;8.824;2024-03-02T12:30:17;98806.81;;;14.34;58.23
74613;BME280;63119;51.788;8.824;2024-03-02T12:32:43;98810.47;;;14.59;56.85
74613;BME280;63119;51.788;8.824;2024-03-02T12:35:10;98802.91;;;14.80;56.17
74613;BME280;63119;51.788;8.824;2024-03-02T12:37:49;98804.56;;;14.30;56.78
74613;BME280;63119;51.788;8.824;2024-03-02T12:40:16;98804.69;;;14.38;56.49
74613;BME280;63119;51.788;8.824;2024-03-02T12:42:43;98808.38;;;14.78;56.34
74613;BME280;63119;51.788;8.824;2024-03-02T12:45:09;98803.09;;;14.53;55.21
74613;BME280;63119;51.788;8.824;2024-03-02T12:47:35;98796.84;;;15.04;55.09
74613;BME280;63119;51.788;8.824;2024-03-02T12:50:00;98800.34;;;15.04;53.66
74613;BME280;63119;51.788;8.824;2024-03-02T12:52:26;98789.94;;;14.85;54.81
74613;BME280;63119;51.788;8.824;2024-03-02T12:54:52;98790.28;;;14.90;53.84
74613;BME280;63119;51.788;8.824;2024-03-02T12:57:18;98791.34;;;15.05;54.35
74613;BME280;63119;51.788;8.824;2024-03-02T12:59:47;98785.97;;;14.89;53.44
74613;BME280;63119;51.788;8.824;2024-03-02T13:02:19;98787.94;;;14.87;53.72
74613;BME280;63119;51.788;8.824;2024-03-02T13:04:52;98785.09;;;14.81;53.55
74613;BME280;63119;51.788;8.824;2024-03-02T13:07:18;98779.50;;;15.00;53.23
74613;BME280;63119;51.788;8.824;2024-03-02T13:09:45;98783.03;;;15.08;52.88
74613;BME280;63119;51.788;8.824;2024-03-02T13:12:11;98774.47;;;15.47;52.89